Inveraray, United Kingdom
Current Conditions -  °F | °C
As of 4:20 PM on Monday 22 Dec 2014 (Local Time) from EGPF Reporting Station
Overcast Overcast  
Wind Chill: 41°   Ceiling: 3400
Heat Index: 46°   Visibility: 6mi
Dew Point: 43°   Wind: 13mph
Humidity: 87%   Direction: 240°WSW
Pressure: 29.65"   Gusts: NA
Location:  56.23°N, 5.07°W
Report Text: EGPF 221620Z AUTO 24011KT 9999 OVC034 08/06 Q1004
Loading
Personal Weather Stations






























Interactive Weather Map New forecast layout! Learn more

10-Day Weather Forecast

Advertisements
Track Severe Weather on mobile